首页
METAR-TAF:

METAR-TAF

机场 :

Muskoka, 安大略省, 加拿大

纬度: 44-58N, 经度: 079-18W, 海拔: 280米

当前天气观测

该预报发布于34分钟前的00:00 UTC
风速8节,风向西南
温度 -4°C
湿度 80%
气压 1026 hPa
能見度: 14.5公里
阴天层高于2100英尺

METAR: CYQA 220000Z AUTO 22008KT 9SM OVC021 M04/M07 A3029 RMK SLP282

时间: 19:34 (00:34 UTC)

预报

该预报发布于4小时和56分钟前的19:38 UTC
预报有效从21日的 20点(UTC)到 22日的 03点(UTC)
风速10节,风向西转西南,有时为20节阵风
能見度: 10公里
多云层高于3000英尺
短暂存在
从 21日的 20点(UTC)到 22日的 03点(UTC)
能見度: 8.0公里
阴天层高于2000英尺
小雪
成为
从 21日的 23点(UTC)到 22日的 01点(UTC)
风速12节,风向西南

TAF: CYQA 211938Z 2120/2203 24010G20KT P6SM BKN030 TEMPO 2120/2203 5SM -SN OVC020 BECMG 2123/2201 23012KT RMK FCST BASED ON AUTO OBS. NXT FCST WILL BE ISSUED AT 221245Z

超过4000个机场的气象观测和天气预报(METAR&TAF报告)。

可查询的气象台以黄色和红色小点在地图上表示。

将鼠标移到小点上方,可查看气象台名称。

然后点击查看天气观测和预报。

如需切换地图:点击带黑十字的绿色按钮放大地图;点击带横线的绿色按钮缩小地图;或者点击绿色箭头查看邻近地区的地图。


METAR-TAF: